sensor_id;sensor_type;location;lat;lon;timestamp;P1;durP1;ratioP1;P2;durP2;ratioP2
25721;SDS011;13578;53.450;15.496;2023-06-10T00:02:55;8.80;;;2.92;;
25721;SDS011;13578;53.450;15.496;2023-06-10T00:05:55;6.57;;;2.50;;
25721;SDS011;13578;53.450;15.496;2023-06-10T00:08:56;9.90;;;2.92;;
25721;SDS011;13578;53.450;15.496;2023-06-10T00:11:57;5.55;;;2.30;;
25721;SDS011;13578;53.450;15.496;2023-06-10T00:14:59;8.38;;;2.75;;
25721;SDS011;13578;53.450;15.496;2023-06-10T00:18:00;12.23;;;3.10;;
25721;SDS011;13578;53.450;15.496;2023-06-10T00:21:02;6.95;;;2.90;;
25721;SDS011;13578;53.450;15.496;2023-06-10T00:24:05;7.93;;;2.67;;
25721;SDS011;13578;53.450;15.496;2023-06-10T00:27:06;7.55;;;3.03;;
25721;SDS011;13578;53.450;15.496;2023-06-10T00:30:07;8.63;;;2.55;;
25721;SDS011;13578;53.450;15.496;2023-06-10T00:33:08;5.35;;;2.50;;
25721;SDS011;13578;53.450;15.496;2023-06-10T00:36:09;6.97;;;2.80;;
25721;SDS011;13578;53.450;15.496;2023-06-10T00:39:10;6.45;;;2.67;;
25721;SDS011;13578;53.450;15.496;2023-06-10T00:42:11;5.53;;;2.38;;
25721;SDS011;13578;53.450;15.496;2023-06-10T00:45:11;10.60;;;2.92;;
25721;SDS011;13578;53.450;15.496;2023-06-10T00:48:12;9.52;;;2.75;;
25721;SDS011;13578;53.450;15.496;2023-06-10T00:51:13;5.35;;;2.63;;
25721;SDS011;13578;53.450;15.496;2023-06-10T00:54:14;7.57;;;2.85;;
25721;SDS011;13578;53.450;15.496;2023-06-10T00:57:15;5.32;;;2.28;;
25721;SDS011;13578;53.450;15.496;2023-06-10T01:00:16;7.40;;;2.30;;
25721;SDS011;13578;53.450;15.496;2023-06-10T01:03:17;7.38;;;2.22;;
25721;SDS011;13578;53.450;15.496;2023-06-10T01:06:20;4.65;;;2.13;;
25721;SDS011;13578;53.450;15.496;2023-06-10T01:13:07;7.18;;;3.15;;
25721;SDS011;13578;53.450;15.496;2023-06-10T01:16:11;9.00;;;2.38;;
25721;SDS011;13578;53.450;15.496;2023-06-10T01:19:12;9.75;;;2.50;;
25721;SDS011;13578;53.450;15.496;2023-06-10T01:22:14;3.28;;;2.10;;
25721;SDS011;13578;53.450;15.496;2023-06-10T01:25:16;3.20;;;2.05;;
25721;SDS011;13578;53.450;15.496;2023-06-10T01:28:19;5.80;;;1.98;;
25721;SDS011;13578;53.450;15.496;2023-06-10T01:31:30;6.40;;;2.40;;
25721;SDS011;13578;53.450;15.496;2023-06-10T01:34:47;4.78;;;1.85;;
25721;SDS011;13578;53.450;15.496;2023-06-10T01:37:49;4.38;;;1.50;;
25721;SDS011;13578;53.450;15.496;2023-06-10T01:40:53;5.57;;;2.28;;
25721;SDS011;13578;53.450;15.496;2023-06-10T01:43:55;10.65;;;2.08;;
25721;SDS011;13578;53.450;15.496;2023-06-10T01:46:56;6.85;;;2.15;;
25721;SDS011;13578;53.450;15.496;2023-06-10T01:49:56;9.80;;;2.30;;
25721;SDS011;13578;53.450;15.496;2023-06-10T01:52:58;8.38;;;2.20;;
25721;SDS011;13578;53.450;15.496;2023-06-10T01:55:59;8.48;;;2.45;;
25721;SDS011;13578;53.450;15.496;2023-06-10T01:59:00;4.72;;;1.88;;
25721;SDS011;13578;53.450;15.496;2023-06-10T02:02:01;12.10;;;2.88;;
25721;SDS011;13578;53.450;15.496;2023-06-10T02:05:01;7.50;;;2.10;;
25721;SDS011;13578;53.450;15.496;2023-06-10T02:08:02;5.60;;;2.03;;
25721;SDS011;13578;53.450;15.496;2023-06-10T02:11:02;4.72;;;2.15;;
25721;SDS011;13578;53.450;15.496;2023-06-10T02:14:03;13.20;;;2.65;;
25721;SDS011;13578;53.450;15.496;2023-06-10T02:17:04;24.55;;;3.25;;
25721;SDS011;13578;53.450;15.496;2023-06-10T02:20:05;11.32;;;2.75;;
25721;SDS011;13578;53.450;15.496;2023-06-10T02:23:07;9.60;;;2.28;;
25721;SDS011;13578;53.450;15.496;2023-06-10T02:26:08;13.10;;;2.17;;
25721;SDS011;13578;53.450;15.496;2023-06-10T02:29:08;7.75;;;1.80;;
25721;SDS011;13578;53.450;15.496;2023-06-10T02:32:09;9.70;;;2.38;;
25721;SDS011;13578;53.450;15.496;2023-06-10T02:35:10;8.15;;;2.20;;
25721;SDS011;13578;53.450;15.496;2023-06-10T02:38:12;7.40;;;2.25;;
25721;SDS011;13578;53.450;15.496;2023-06-10T02:41:13;6.40;;;1.95;;
25721;SDS011;13578;53.450;15.496;2023-06-10T02:44:13;8.05;;;3.05;;
25721;SDS011;13578;53.450;15.496;2023-06-10T02:47:14;4.50;;;1.98;;
25721;SDS011;13578;53.450;15.496;2023-06-10T02:50:15;9.07;;;2.75;;
25721;SDS011;13578;53.450;15.496;2023-06-10T02:53:16;5.03;;;1.95;;
25721;SDS011;13578;53.450;15.496;2023-06-10T02:56:16;6.60;;;1.92;;
25721;SDS011;13578;53.450;15.496;2023-06-10T02:59:17;6.90;;;2.78;;
25721;SDS011;13578;53.450;15.496;2023-06-10T03:02:18;9.32;;;2.92;;
25721;SDS011;13578;53.450;15.496;2023-06-10T03:05:20;7.13;;;2.65;;
25721;SDS011;13578;53.450;15.496;2023-06-10T03:08:20;5.07;;;2.30;;
25721;SDS011;13578;53.450;15.496;2023-06-10T03:11:21;5.07;;;2.22;;
25721;SDS011;13578;53.450;15.496;2023-06-10T03:14:23;12.50;;;2.38;;
25721;SDS011;13578;53.450;15.496;2023-06-10T03:17:24;10.40;;;2.70;;
25721;SDS011;13578;53.450;15.496;2023-06-10T03:20:25;8.25;;;2.08;;
25721;SDS011;13578;53.450;15.496;2023-06-10T03:23:27;10.38;;;2.50;;
25721;SDS011;13578;53.450;15.496;2023-06-10T03:26:29;9.07;;;2.40;;
25721;SDS011;13578;53.450;15.496;2023-06-10T03:29:29;5.18;;;1.75;;
25721;SDS011;13578;53.450;15.496;2023-06-10T03:32:30;4.70;;;2.42;;
25721;SDS011;13578;53.450;15.496;2023-06-10T03:35:31;4.25;;;2.20;;
25721;SDS011;13578;53.450;15.496;2023-06-10T03:38:32;7.53;;;2.78;;
25721;SDS011;13578;53.450;15.496;2023-06-10T03:41:33;8.23;;;1.90;;
25721;SDS011;13578;53.450;15.496;2023-06-10T03:44:34;6.97;;;2.30;;
25721;SDS011;13578;53.450;15.496;2023-06-10T03:47:34;5.15;;;2.13;;
25721;SDS011;13578;53.450;15.496;2023-06-10T03:50:38;3.70;;;2.00;;
25721;SDS011;13578;53.450;15.496;2023-06-10T03:53:39;8.45;;;1.73;;
25721;SDS011;13578;53.450;15.496;2023-06-10T03:56:39;8.05;;;2.63;;
25721;SDS011;13578;53.450;15.496;2023-06-10T03:59:40;4.68;;;1.92;;
25721;SDS011;13578;53.450;15.496;2023-06-10T04:02:41;7.70;;;2.15;;
25721;SDS011;13578;53.450;15.496;2023-06-10T04:05:45;7.47;;;2.43;;
25721;SDS011;13578;53.450;15.496;2023-06-10T04:08:46;4.28;;;2.15;;
25721;SDS011;13578;53.450;15.496;2023-06-10T04:11:47;10.82;;;2.28;;
25721;SDS011;13578;53.450;15.496;2023-06-10T04:18:16;7.15;;;2.33;;
25721;SDS011;13578;53.450;15.496;2023-06-10T04:21:18;10.90;;;3.33;;
25721;SDS011;13578;53.450;15.496;2023-06-10T04:24:19;5.03;;;1.75;;
25721;SDS011;13578;53.450;15.496;2023-06-10T04:27:20;7.18;;;2.17;;
25721;SDS011;13578;53.450;15.496;2023-06-10T04:30:20;3.67;;;2.22;;
25721;SDS011;13578;53.450;15.496;2023-06-10T04:33:21;8.98;;;2.50;;
25721;SDS011;13578;53.450;15.496;2023-06-10T04:36:22;7.90;;;2.85;;
25721;SDS011;13578;53.450;15.496;2023-06-10T04:39:23;12.10;;;2.20;;
25721;SDS011;13578;53.450;15.496;2023-06-10T04:42:24;7.28;;;2.42;;
25721;SDS011;13578;53.450;15.496;2023-06-10T04:45:25;9.88;;;2.50;;
25721;SDS011;13578;53.450;15.496;2023-06-10T04:48:25;9.57;;;2.22;;
25721;SDS011;13578;53.450;15.496;2023-06-10T04:51:27;14.07;;;2.58;;
25721;SDS011;13578;53.450;15.496;2023-06-10T04:54:28;3.08;;;1.63;;
25721;SDS011;13578;53.450;15.496;2023-06-10T04:57:28;4.80;;;2.03;;
25721;SDS011;13578;53.450;15.496;2023-06-10T05:00:29;5.57;;;2.85;;
25721;SDS011;13578;53.450;15.496;2023-06-10T05:03:29;9.38;;;2.40;;
25721;SDS011;13578;53.450;15.496;2023-06-10T05:06:30;9.93;;;2.50;;
25721;SDS011;13578;53.450;15.496;2023-06-10T05:09:31;8.20;;;2.92;;
25721;SDS011;13578;53.450;15.496;2023-06-10T05:12:33;7.13;;;2.17;;
25721;SDS011;13578;53.450;15.496;2023-06-10T05:15:33;6.65;;;3.05;;
25721;SDS011;13578;53.450;15.496;2023-06-10T05:18:34;11.73;;;2.25;;
25721;SDS011;13578;53.450;15.496;2023-06-10T05:21:35;8.93;;;2.53;;
25721;SDS011;13578;53.450;15.496;2023-06-10T05:24:36;8.50;;;2.20;;
25721;SDS011;13578;53.450;15.496;2023-06-10T05:27:37;6.30;;;2.50;;
25721;SDS011;13578;53.450;15.496;2023-06-10T05:30:38;7.07;;;1.95;;
25721;SDS011;13578;53.450;15.496;2023-06-10T05:33:39;8.10;;;2.38;;
25721;SDS011;13578;53.450;15.496;2023-06-10T05:36:40;5.32;;;2.20;;
25721;SDS011;13578;53.450;15.496;2023-06-10T05:39:41;6.88;;;2.75;;
25721;SDS011;13578;53.450;15.496;2023-06-10T05:42:41;4.05;;;1.85;;
25721;SDS011;13578;53.450;15.496;2023-06-10T05:45:42;6.63;;;2.67;;
25721;SDS011;13578;53.450;15.496;2023-06-10T05:48:43;3.97;;;2.13;;
25721;SDS011;13578;53.450;15.496;2023-06-10T05:51:44;4.57;;;1.52;;
25721;SDS011;13578;53.450;15.496;2023-06-10T05:54:44;12.98;;;1.85;;
25721;SDS011;13578;53.450;15.496;2023-06-10T05:57:45;3.67;;;1.40;;
25721;SDS011;13578;53.450;15.496;2023-06-10T06:00:46;5.30;;;2.05;;
25721;SDS011;13578;53.450;15.496;2023-06-10T06:03:47;4.93;;;1.70;;
25721;SDS011;13578;53.450;15.496;2023-06-10T06:06:47;3.88;;;1.98;;
25721;SDS011;13578;53.450;15.496;2023-06-10T06:09:48;8.70;;;2.05;;
25721;SDS011;13578;53.450;15.496;2023-06-10T06:12:48;3.28;;;1.60;;
25721;SDS011;13578;53.450;15.496;2023-06-10T06:15:49;5.18;;;1.95;;
25721;SDS011;13578;53.450;15.496;2023-06-10T06:18:50;2.65;;;1.23;;
25721;SDS011;13578;53.450;15.496;2023-06-10T06:21:51;7.25;;;1.90;;
25721;SDS011;13578;53.450;15.496;2023-06-10T06:24:51;4.65;;;1.77;;
25721;SDS011;13578;53.450;15.496;2023-06-10T06:27:52;4.13;;;1.88;;
25721;SDS011;13578;53.450;15.496;2023-06-10T06:30:53;3.95;;;1.40;;
25721;SDS011;13578;53.450;15.496;2023-06-10T06:33:54;3.28;;;1.67;;
25721;SDS011;13578;53.450;15.496;2023-06-10T06:36:54;4.22;;;2.22;;
25721;SDS011;13578;53.450;15.496;2023-06-10T06:39:57;7.22;;;1.83;;
25721;SDS011;13578;53.450;15.496;2023-06-10T06:42:58;4.03;;;1.70;;
25721;SDS011;13578;53.450;15.496;2023-06-10T06:45:59;4.97;;;1.45;;
25721;SDS011;13578;53.450;15.496;2023-06-10T06:49:02;5.50;;;1.30;;
25721;SDS011;13578;53.450;15.496;2023-06-10T06:52:03;4.65;;;1.67;;
25721;SDS011;13578;53.450;15.496;2023-06-10T06:55:05;3.33;;;1.85;;
25721;SDS011;13578;53.450;15.496;2023-06-10T06:58:19;3.75;;;1.55;;
25721;SDS011;13578;53.450;15.496;2023-06-10T07:01:28;5.63;;;1.52;;
25721;SDS011;13578;53.450;15.496;2023-06-10T07:04:33;2.92;;;1.33;;
25721;SDS011;13578;53.450;15.496;2023-06-10T07:07:35;2.45;;;1.20;;
25721;SDS011;13578;53.450;15.496;2023-06-10T07:10:37;4.22;;;1.45;;
25721;SDS011;13578;53.450;15.496;2023-06-10T07:13:38;5.10;;;1.25;;
25721;SDS011;13578;53.450;15.496;2023-06-10T07:16:39;2.97;;;1.33;;
25721;SDS011;13578;53.450;15.496;2023-06-10T07:19:40;2.95;;;1.33;;
25721;SDS011;13578;53.450;15.496;2023-06-10T07:22:41;4.00;;;1.10;;
25721;SDS011;13578;53.450;15.496;2023-06-10T07:25:43;3.03;;;1.23;;
25721;SDS011;13578;53.450;15.496;2023-06-10T07:28:45;2.55;;;1.25;;
25721;SDS011;13578;53.450;15.496;2023-06-10T07:31:48;5.10;;;1.42;;
25721;SDS011;13578;53.450;15.496;2023-06-10T07:34:50;2.20;;;1.02;;
25721;SDS011;13578;53.450;15.496;2023-06-10T07:37:56;2.85;;;1.25;;
25721;SDS011;13578;53.450;15.496;2023-06-10T07:40:59;2.38;;;1.20;;
25721;SDS011;13578;53.450;15.496;2023-06-10T07:44:23;3.70;;;1.35;;
25721;SDS011;13578;53.450;15.496;2023-06-10T07:47:26;3.58;;;1.17;;
25721;SDS011;13578;53.450;15.496;2023-06-10T07:50:32;4.63;;;1.17;;
25721;SDS011;13578;53.450;15.496;2023-06-10T07:53:56;6.97;;;1.58;;
25721;SDS011;13578;53.450;15.496;2023-06-10T07:57:04;3.88;;;1.35;;
25721;SDS011;13578;53.450;15.496;2023-06-10T08:00:07;4.00;;;1.30;;
25721;SDS011;13578;53.450;15.496;2023-06-10T08:03:10;3.25;;;1.10;;
25721;SDS011;13578;53.450;15.496;2023-06-10T08:06:42;2.83;;;1.17;;
25721;SDS011;13578;53.450;15.496;2023-06-10T08:09:44;3.17;;;1.10;;
25721;SDS011;13578;53.450;15.496;2023-06-10T08:12:47;3.47;;;1.20;;
25721;SDS011;13578;53.450;15.496;2023-06-10T08:15:49;2.63;;;0.95;;
25721;SDS011;13578;53.450;15.496;2023-06-10T08:18:57;2.42;;;1.00;;
25721;SDS011;13578;53.450;15.496;2023-06-10T08:22:08;1.63;;;0.90;;
25721;SDS011;13578;53.450;15.496;2023-06-10T08:25:20;2.10;;;0.70;;
25721;SDS011;13578;53.450;15.496;2023-06-10T08:28:45;2.50;;;0.73;;
25721;SDS011;13578;53.450;15.496;2023-06-10T08:32:10;1.63;;;0.50;;
25721;SDS011;13578;53.450;15.496;2023-06-10T08:35:26;2.42;;;0.57;;
25721;SDS011;13578;53.450;15.496;2023-06-10T08:38:54;2.47;;;1.02;;
25721;SDS011;13578;53.450;15.496;2023-06-10T08:45:53;2.30;;;0.90;;
25721;SDS011;13578;53.450;15.496;2023-06-10T08:49:02;2.30;;;0.82;;
25721;SDS011;13578;53.450;15.496;2023-06-10T08:52:05;4.13;;;0.90;;
25721;SDS011;13578;53.450;15.496;2023-06-10T08:55:13;2.05;;;0.80;;
25721;SDS011;13578;53.450;15.496;2023-06-10T08:58:33;3.10;;;1.00;;
25721;SDS011;13578;53.450;15.496;2023-06-10T09:01:40;1.67;;;0.82;;
25721;SDS011;13578;53.450;15.496;2023-06-10T09:04:42;3.05;;;0.80;;
25721;SDS011;13578;53.450;15.496;2023-06-10T09:07:45;3.22;;;0.75;;
25721;SDS011;13578;53.450;15.496;2023-06-10T09:10:47;1.35;;;0.52;;
25721;SDS011;13578;53.450;15.496;2023-06-10T09:13:49;1.45;;;0.70;;
25721;SDS011;13578;53.450;15.496;2023-06-10T09:16:50;2.53;;;0.65;;
25721;SDS011;13578;53.450;15.496;2023-06-10T09:19:52;2.67;;;1.20;;
25721;SDS011;13578;53.450;15.496;2023-06-10T09:22:55;3.55;;;1.38;;
25721;SDS011;13578;53.450;15.496;2023-06-10T09:25:56;2.50;;;0.95;;
25721;SDS011;13578;53.450;15.496;2023-06-10T09:29:04;4.78;;;0.68;;
25721;SDS011;13578;53.450;15.496;2023-06-10T09:32:06;2.08;;;0.98;;
25721;SDS011;13578;53.450;15.496;2023-06-10T09:35:10;2.53;;;0.98;;
25721;SDS011;13578;53.450;15.496;2023-06-10T09:38:11;3.55;;;1.05;;
25721;SDS011;13578;53.450;15.496;2023-06-10T09:41:12;5.15;;;1.08;;
25721;SDS011;13578;53.450;15.496;2023-06-10T09:44:16;2.75;;;1.17;;
25721;SDS011;13578;53.450;15.496;2023-06-10T09:47:21;2.55;;;1.15;;
25721;SDS011;13578;53.450;15.496;2023-06-10T09:50:22;1.85;;;0.90;;
25721;SDS011;13578;53.450;15.496;2023-06-10T09:53:23;3.35;;;1.00;;
25721;SDS011;13578;53.450;15.496;2023-06-10T09:56:36;4.45;;;1.60;;
25721;SDS011;13578;53.450;15.496;2023-06-10T09:59:37;1.88;;;0.98;;
25721;SDS011;13578;53.450;15.496;2023-06-10T10:02:48;4.63;;;1.33;;
25721;SDS011;13578;53.450;15.496;2023-06-10T10:05:51;2.70;;;1.00;;
25721;SDS011;13578;53.450;15.496;2023-06-10T10:08:59;3.78;;;1.17;;
25721;SDS011;13578;53.450;15.496;2023-06-10T10:12:00;5.78;;;1.55;;
25721;SDS011;13578;53.450;15.496;2023-06-10T10:15:02;2.38;;;1.23;;
25721;SDS011;13578;53.450;15.496;2023-06-10T10:21:18;2.15;;;0.95;;
25721;SDS011;13578;53.450;15.496;2023-06-10T10:24:23;3.88;;;1.27;;
25721;SDS011;13578;53.450;15.496;2023-06-10T10:27:33;2.20;;;1.05;;
25721;SDS011;13578;53.450;15.496;2023-06-10T10:30:46;4.80;;;1.00;;
25721;SDS011;13578;53.450;15.496;2023-06-10T10:33:59;2.47;;;1.02;;
25721;SDS011;13578;53.450;15.496;2023-06-10T10:37:02;4.78;;;1.00;;
25721;SDS011;13578;53.450;15.496;2023-06-10T10:40:03;2.47;;;0.93;;
25721;SDS011;13578;53.450;15.496;2023-06-10T10:43:04;2.90;;;1.20;;
25721;SDS011;13578;53.450;15.496;2023-06-10T10:46:09;2.65;;;0.93;;
25721;SDS011;13578;53.450;15.496;2023-06-10T10:49:13;3.33;;;1.35;;
25721;SDS011;13578;53.450;15.496;2023-06-10T10:52:15;3.22;;;1.02;;
25721;SDS011;13578;53.450;15.496;2023-06-10T10:55:15;3.28;;;1.02;;
25721;SDS011;13578;53.450;15.496;2023-06-10T10:58:16;6.68;;;0.85;;
25721;SDS011;13578;53.450;15.496;2023-06-10T11:01:24;3.90;;;1.25;;
25721;SDS011;13578;53.450;15.496;2023-06-10T11:04:43;5.63;;;1.40;;
25721;SDS011;13578;53.450;15.496;2023-06-10T11:07:54;2.83;;;1.10;;
25721;SDS011;13578;53.450;15.496;2023-06-10T11:10:58;3.78;;;1.30;;
25721;SDS011;13578;53.450;15.496;2023-06-10T11:17:17;3.85;;;1.52;;
25721;SDS011;13578;53.450;15.496;2023-06-10T11:24:14;4.82;;;1.30;;
25721;SDS011;13578;53.450;15.496;2023-06-10T11:27:15;3.43;;;1.30;;
25721;SDS011;13578;53.450;15.496;2023-06-10T11:30:20;2.83;;;1.00;;
25721;SDS011;13578;53.450;15.496;2023-06-10T11:33:27;2.50;;;1.30;;
25721;SDS011;13578;53.450;15.496;2023-06-10T11:36:31;4.85;;;1.15;;
25721;SDS011;13578;53.450;15.496;2023-06-10T11:39:44;5.63;;;1.00;;
25721;SDS011;13578;53.450;15.496;2023-06-10T11:42:45;2.72;;;1.30;;
25721;SDS011;13578;53.450;15.496;2023-06-10T11:45:46;2.38;;;1.00;;
25721;SDS011;13578;53.450;15.496;2023-06-10T11:48:51;2.00;;;0.93;;
25721;SDS011;13578;53.450;15.496;2023-06-10T11:51:52;3.15;;;1.10;;
25721;SDS011;13578;53.450;15.496;2023-06-10T11:54:54;5.22;;;1.40;;
25721;SDS011;13578;53.450;15.496;2023-06-10T11:57:55;3.88;;;0.95;;
25721;SDS011;13578;53.450;15.496;2023-06-10T12:00:57;5.97;;;1.63;;
25721;SDS011;13578;53.450;15.496;2023-06-10T12:03:59;1.92;;;0.90;;
25721;SDS011;13578;53.450;15.496;2023-06-10T12:07:01;2.67;;;1.13;;
25721;SDS011;13578;53.450;15.496;2023-06-10T12:10:01;2.88;;;1.05;;
25721;SDS011;13578;53.450;15.496;2023-06-10T12:13:02;5.10;;;1.80;;
25721;SDS011;13578;53.450;15.496;2023-06-10T12:16:07;2.25;;;1.25;;
25721;SDS011;13578;53.450;15.496;2023-06-10T12:19:09;3.20;;;1.23;;
25721;SDS011;13578;53.450;15.496;2023-06-10T12:22:10;3.10;;;1.58;;
25721;SDS011;13578;53.450;15.496;2023-06-10T12:25:11;3.63;;;1.33;;
25721;SDS011;13578;53.450;15.496;2023-06-10T12:28:12;11.60;;;1.42;;
25721;SDS011;13578;53.450;15.496;2023-06-10T12:31:13;3.40;;;1.20;;
25721;SDS011;13578;53.450;15.496;2023-06-10T12:34:14;4.43;;;1.38;;
25721;SDS011;13578;53.450;15.496;2023-06-10T12:37:15;3.05;;;1.25;;
25721;SDS011;13578;53.450;15.496;2023-06-10T12:40:16;2.53;;;1.05;;
25721;SDS011;13578;53.450;15.496;2023-06-10T12:43:20;3.95;;;1.20;;
25721;SDS011;13578;53.450;15.496;2023-06-10T12:46:21;1.92;;;1.33;;
25721;SDS011;13578;53.450;15.496;2023-06-10T12:49:22;2.90;;;1.30;;
25721;SDS011;13578;53.450;15.496;2023-06-10T12:52:24;4.57;;;1.13;;
25721;SDS011;13578;53.450;15.496;2023-06-10T12:55:25;3.63;;;1.48;;
25721;SDS011;13578;53.450;15.496;2023-06-10T12:58:26;7.13;;;1.55;;
25721;SDS011;13578;53.450;15.496;2023-06-10T13:01:27;3.88;;;1.40;;
25721;SDS011;13578;53.450;15.496;2023-06-10T13:04:27;7.93;;;1.52;;
25721;SDS011;13578;53.450;15.496;2023-06-10T13:07:28;3.97;;;1.23;;
25721;SDS011;13578;53.450;15.496;2023-06-10T13:10:30;3.55;;;1.45;;
25721;SDS011;13578;53.450;15.496;2023-06-10T13:13:31;4.80;;;1.60;;
25721;SDS011;13578;53.450;15.496;2023-06-10T13:16:32;4.15;;;1.33;;
25721;SDS011;13578;53.450;15.496;2023-06-10T13:19:33;9.73;;;1.52;;
25721;SDS011;13578;53.450;15.496;2023-06-10T13:22:34;7.88;;;1.85;;
25721;SDS011;13578;53.450;15.496;2023-06-10T13:25:36;4.90;;;1.40;;
25721;SDS011;13578;53.450;15.496;2023-06-10T13:28:37;3.95;;;1.58;;
25721;SDS011;13578;53.450;15.496;2023-06-10T13:31:38;4.32;;;1.70;;
25721;SDS011;13578;53.450;15.496;2023-06-10T13:34:38;3.05;;;1.48;;
25721;SDS011;13578;53.450;15.496;2023-06-10T13:37:39;3.15;;;0.90;;
25721;SDS011;13578;53.450;15.496;2023-06-10T13:40:41;3.15;;;1.60;;
25721;SDS011;13578;53.450;15.496;2023-06-10T13:43:42;2.85;;;1.50;;
25721;SDS011;13578;53.450;15.496;2023-06-10T13:46:43;5.80;;;1.92;;
25721;SDS011;13578;53.450;15.496;2023-06-10T13:49:43;5.13;;;2.15;;
25721;SDS011;13578;53.450;15.496;2023-06-10T13:52:44;6.40;;;1.50;;
25721;SDS011;13578;53.450;15.496;2023-06-10T13:55:44;5.43;;;1.30;;
25721;SDS011;13578;53.450;15.496;2023-06-10T13:58:45;5.70;;;1.58;;
25721;SDS011;13578;53.450;15.496;2023-06-10T14:01:46;5.80;;;1.00;;
25721;SDS011;13578;53.450;15.496;2023-06-10T14:04:47;4.90;;;1.27;;
25721;SDS011;13578;53.450;15.496;2023-06-10T14:07:47;2.20;;;1.00;;
25721;SDS011;13578;53.450;15.496;2023-06-10T14:10:48;3.17;;;1.15;;
25721;SDS011;13578;53.450;15.496;2023-06-10T14:13:50;3.67;;;1.15;;
25721;SDS011;13578;53.450;15.496;2023-06-10T14:16:51;2.28;;;1.15;;
25721;SDS011;13578;53.450;15.496;2023-06-10T14:19:51;10.77;;;1.13;;
25721;SDS011;13578;53.450;15.496;2023-06-10T14:22:52;2.78;;;1.10;;
25721;SDS011;13578;53.450;15.496;2023-06-10T14:25:53;3.38;;;0.90;;
25721;SDS011;13578;53.450;15.496;2023-06-10T14:28:53;4.00;;;1.20;;
25721;SDS011;13578;53.450;15.496;2023-06-10T14:31:54;4.50;;;1.30;;
25721;SDS011;13578;53.450;15.496;2023-06-10T14:34:55;5.88;;;1.45;;
25721;SDS011;13578;53.450;15.496;2023-06-10T14:37:56;4.10;;;1.15;;
25721;SDS011;13578;53.450;15.496;2023-06-10T14:40:56;6.97;;;1.23;;
25721;SDS011;13578;53.450;15.496;2023-06-10T14:43:58;4.40;;;0.93;;
25721;SDS011;13578;53.450;15.496;2023-06-10T14:46:59;2.97;;;0.70;;
25721;SDS011;13578;53.450;15.496;2023-06-10T14:49:59;1.52;;;0.75;;
25721;SDS011;13578;53.450;15.496;2023-06-10T14:53:00;4.97;;;1.40;;
25721;SDS011;13578;53.450;15.496;2023-06-10T14:56:01;2.78;;;0.80;;
25721;SDS011;13578;53.450;15.496;2023-06-10T14:59:01;2.92;;;1.20;;
25721;SDS011;13578;53.450;15.496;2023-06-10T15:02:02;4.30;;;1.08;;
25721;SDS011;13578;53.450;15.496;2023-06-10T15:05:03;3.08;;;1.15;;
25721;SDS011;13578;53.450;15.496;2023-06-10T15:08:04;2.80;;;0.93;;
25721;SDS011;13578;53.450;15.496;2023-06-10T15:11:06;7.78;;;0.95;;
25721;SDS011;13578;53.450;15.496;2023-06-10T15:14:07;3.28;;;1.25;;
25721;SDS011;13578;53.450;15.496;2023-06-10T15:17:09;2.97;;;1.17;;
25721;SDS011;13578;53.450;15.496;2023-06-10T15:20:10;5.35;;;1.45;;
25721;SDS011;13578;53.450;15.496;2023-06-10T15:23:11;4.65;;;1.35;;
25721;SDS011;13578;53.450;15.496;2023-06-10T15:26:12;2.72;;;1.08;;
25721;SDS011;13578;53.450;15.496;2023-06-10T15:29:12;5.20;;;1.20;;
25721;SDS011;13578;53.450;15.496;2023-06-10T15:32:13;3.80;;;1.25;;
25721;SDS011;13578;53.450;15.496;2023-06-10T15:35:14;2.50;;;1.08;;
25721;SDS011;13578;53.450;15.496;2023-06-10T15:38:15;3.80;;;1.63;;
25721;SDS011;13578;53.450;15.496;2023-06-10T15:41:15;5.15;;;1.13;;
25721;SDS011;13578;53.450;15.496;2023-06-10T15:44:16;1.63;;;0.82;;
25721;SDS011;13578;53.450;15.496;2023-06-10T15:47:17;2.58;;;0.90;;
25721;SDS011;13578;53.450;15.496;2023-06-10T15:50:18;4.63;;;1.20;;
25721;SDS011;13578;53.450;15.496;2023-06-10T15:53:18;1.85;;;0.73;;
25721;SDS011;13578;53.450;15.496;2023-06-10T15:56:19;3.75;;;1.40;;
25721;SDS011;13578;53.450;15.496;2023-06-10T15:59:21;8.52;;;1.30;;
25721;SDS011;13578;53.450;15.496;2023-06-10T16:02:21;2.92;;;0.55;;
25721;SDS011;13578;53.450;15.496;2023-06-10T16:05:22;2.97;;;1.42;;
25721;SDS011;13578;53.450;15.496;2023-06-10T16:08:23;4.00;;;1.10;;
25721;SDS011;13578;53.450;15.496;2023-06-10T16:11:23;1.25;;;0.63;;
25721;SDS011;13578;53.450;15.496;2023-06-10T16:14:24;4.63;;;1.00;;
25721;SDS011;13578;53.450;15.496;2023-06-10T16:17:25;2.15;;;0.77;;
25721;SDS011;13578;53.450;15.496;2023-06-10T16:20:26;2.58;;;0.82;;
25721;SDS011;13578;53.450;15.496;2023-06-10T16:23:26;3.40;;;0.70;;
25721;SDS011;13578;53.450;15.496;2023-06-10T16:26:27;1.98;;;0.70;;
25721;SDS011;13578;53.450;15.496;2023-06-10T16:29:27;3.70;;;0.70;;
25721;SDS011;13578;53.450;15.496;2023-06-10T16:32:28;3.63;;;0.90;;
25721;SDS011;13578;53.450;15.496;2023-06-10T16:35:30;3.13;;;0.77;;
25721;SDS011;13578;53.450;15.496;2023-06-10T16:38:32;2.80;;;0.77;;
25721;SDS011;13578;53.450;15.496;2023-06-10T16:41:33;3.08;;;1.00;;
25721;SDS011;13578;53.450;15.496;2023-06-10T16:44:34;4.68;;;0.90;;
25721;SDS011;13578;53.450;15.496;2023-06-10T16:47:35;2.30;;;0.80;;
25721;SDS011;13578;53.450;15.496;2023-06-10T16:50:36;2.63;;;0.98;;
25721;SDS011;13578;53.450;15.496;2023-06-10T16:53:36;6.32;;;0.70;;
25721;SDS011;13578;53.450;15.496;2023-06-10T16:56:37;8.95;;;1.10;;
25721;SDS011;13578;53.450;15.496;2023-06-10T16:59:37;7.68;;;1.20;;
25721;SDS011;13578;53.450;15.496;2023-06-10T17:02:39;3.78;;;0.82;;
25721;SDS011;13578;53.450;15.496;2023-06-10T17:05:39;4.07;;;1.13;;
25721;SDS011;13578;53.450;15.496;2023-06-10T17:08:40;2.50;;;1.10;;
25721;SDS011;13578;53.450;15.496;2023-06-10T17:11:41;1.73;;;0.70;;
25721;SDS011;13578;53.450;15.496;2023-06-10T17:14:41;5.30;;;1.35;;
25721;SDS011;13578;53.450;15.496;2023-06-10T17:17:42;3.67;;;0.80;;
25721;SDS011;13578;53.450;15.496;2023-06-10T17:20:43;3.28;;;0.93;;
25721;SDS011;13578;53.450;15.496;2023-06-10T17:23:44;1.15;;;0.43;;
25721;SDS011;13578;53.450;15.496;2023-06-10T17:26:44;2.00;;;0.82;;
25721;SDS011;13578;53.450;15.496;2023-06-10T17:29:45;2.55;;;0.80;;
25721;SDS011;13578;53.450;15.496;2023-06-10T17:32:46;2.22;;;1.25;;
25721;SDS011;13578;53.450;15.496;2023-06-10T17:35:46;14.25;;;1.35;;
25721;SDS011;13578;53.450;15.496;2023-06-10T17:38:48;1.45;;;0.80;;
25721;SDS011;13578;53.450;15.496;2023-06-10T17:41:49;5.85;;;0.68;;
25721;SDS011;13578;53.450;15.496;2023-06-10T17:44:50;2.22;;;0.98;;
25721;SDS011;13578;53.450;15.496;2023-06-10T17:47:51;3.13;;;0.95;;
25721;SDS011;13578;53.450;15.496;2023-06-10T17:50:52;2.83;;;0.80;;
25721;SDS011;13578;53.450;15.496;2023-06-10T17:53:52;5.53;;;0.68;;
25721;SDS011;13578;53.450;15.496;2023-06-10T17:56:53;4.10;;;0.73;;
25721;SDS011;13578;53.450;15.496;2023-06-10T17:59:54;2.78;;;0.85;;
25721;SDS011;13578;53.450;15.496;2023-06-10T18:02:55;5.25;;;0.70;;
25721;SDS011;13578;53.450;15.496;2023-06-10T18:05:56;2.83;;;0.77;;
25721;SDS011;13578;53.450;15.496;2023-06-10T18:08:56;1.48;;;0.40;;
25721;SDS011;13578;53.450;15.496;2023-06-10T18:11:57;6.57;;;1.13;;
25721;SDS011;13578;53.450;15.496;2023-06-10T18:14:58;6.18;;;0.85;;
25721;SDS011;13578;53.450;15.496;2023-06-10T18:17:58;1.65;;;0.80;;
25721;SDS011;13578;53.450;15.496;2023-06-10T18:20:59;3.20;;;0.90;;
25721;SDS011;13578;53.450;15.496;2023-06-10T18:24:00;2.90;;;0.63;;